Language selection

Features

My Weather Profile Weather Topics  | 

Sable: Past 24 Hour Conditions

 

Banquereau - 44139

10:00 PM AST 24 January 2020Buoy position: 44.27N 57.08W
Disclaimer

This table is a summary of hourly weather conditions for the past 24 hours.
Please note that these observations might not always be representative of weather conditions over their associated marine area.

Date / Time
(AST)
Wind(knots) Wave height(m) Wave period(s) Pressure(kPa) Air tempC) Water tempC)
24 January 2020
22:00 NE 12 gust 13 1.1 7.0 103.3 0 1
21:00 NNE 12 gust 13 1.1 7.0 103.3 1 1
20:00 NNE 12 gust 13 1.1 10.0 103.3 1 1
19:00 NE 12 gust 12 1.1 10.0 103.3 1 1
18:00 NE 12 gust 13 1.1 10.0 103.2 1 1
17:00 NNE 10 gust 12 1.2 10.0 103.2 1 1
16:00 NNE 10 gust 12 1.2 10.0 103.1 2 1
15:00 NNE 12 gust 13 1.3 10.0 103.1 2 1
14:00 N 10 gust 12 1.4 6.0 103.0 2 1
13:00 N 10 gust 12 1.3 6.0 103.0 2 1
12:00 NNW 8 gust 10 1.4 6.0 103.0 2 1
11:00 NNW 8 gust 10 1.3 6.0 103.0 2 1
10:00 NW 8 gust 10 1.4 6.0 103.0 2 1
9:00 WNW 8 gust 12 1.4 7.0 103.0 2 1
8:00 WNW 10 gust 12 1.5 7.0 102.8 2 1
7:00 NW 12 gust 16 1.7 7.0 102.8 3 1
6:00 WNW 13 gust 16 1.7 7.0 102.7 3 1
5:00 WNW 16 gust 19 1.7 6.0 102.7 3 1
4:00 WNW 13 gust 17 1.8 10.0 102.7 2 1
3:00 W 13 gust 17 1.8 6.0 102.7 2 1
2:00 W 16 gust 17 1.8 6.0 102.7 2 1
1:00 WNW 16 gust 17 1.7 5.0 102.7 2 1
0:00 WNW 16 gust 22 1.7 10.0 102.7 2 1
23 January 2020
23:00 WNW 17 gust 22 1.7 10.0 102.7 1 1
22:00 W 16 gust 19 1.7 10.0 102.7 1 1

Zoom-in to make a selection

Map of Atlantic - Newfoundland marine weather areas Banquereau - 44139 Blanc-Sablon Airport Cap Whittle Chevery Natashquan Airport Heath Point Îles de la Madeleine Airport Miscou Island Eskasoni (First Nations) Grand Étang Ingonish Beach North Mountain St.Paul Island J.A. Douglas McCurdy Sydney Airport Charlottetown Airport East Point North Cape Argentia Bonavista Burgeo Cape Race Corner Brook Daniel's Harbour Englee Ferolle Point La Scie Port aux Basques Rocky Harbour Sagona Island St. Anthony Airport St. John's Int'l Airport St. Lawrence Stephenville Airport Twillingate Winterland Branch Hill Wreckhouse Grates Cove Pool's Island Marticot Island Long Pond Cartwright Airport Mary's Harbour
Legend:
buoy Buoy
land station Land Station

Atlantic - Newfoundland Area

Another Region

What we are doing

Date modified: